Hanstholm, Denmark
Current Conditions -  °F | °C
As of 6:50 PM on Thursday 30 Oct 2014 (Local Time) from EKYT Reporting Station
Broken Clouds Broken Clouds  
Wind Chill: 45°   Ceiling: 18000
Heat Index: 45°   Visibility: 6mi
Dew Point: 41°   Wind: 3mph
Humidity: 87%   Direction: 130°SE
Pressure: 30.21"   Gusts: NA
Location:  57.12°N, 8.62°E
Report Text: EKYT 301750Z 13003KT 9999 FEW025 SCT120 BKN180 07/05 Q1023
Loading
Personal Weather Stations






























Interactive Weather Map
Tropical Storm Tracking
New forecast layout! Learn more

10-Day Weather Forecast

Advertisements
Track Severe Weather on mobile